Time;durP1;ratioP1;P1;durP2;ratioP2;P2;SDS_P1;SDS_P2;PMS_P1;PMS_P2;Temp;Humidity;BMP_temperature;BMP_pressure;BME280_temperature;BME280_humidity;BME280_pressure;Samples;Min_cycle;Max_cycle;Signal;HPM_P1;HPM_P2
2021/07/15 00:00:42;;;;;;;4.00;2.60;;;16.00;99.90;;;;;;5097857;28;20431;-80
2021/07/15 00:03:10;;;;;;;3.93;3.63;;;16.00;99.90;;;;;;5076163;28;20923;-79
2021/07/15 00:05:40;;;;;;;3.37;3.07;;;16.00;99.90;;;;;;5089991;28;20451;-80
2021/07/15 00:08:09;;;;;;;3.90;3.40;;;16.10;99.90;;;;;;5098885;28;20484;-80
2021/07/15 00:10:41;;;;;;;3.97;3.60;;;16.10;99.90;;;;;;5099475;28;20878;-80
2021/07/15 00:13:08;;;;;;;3.23;3.00;;;16.10;99.90;;;;;;5077592;28;20415;-81
2021/07/15 00:15:37;;;;;;;5.40;3.37;;;16.10;99.90;;;;;;5058585;28;20473;-80
2021/07/15 00:18:06;;;;;;;3.37;3.07;;;16.10;99.90;;;;;;5080380;28;20437;-80
2021/07/15 00:20:36;;;;;;;3.73;3.43;;;16.00;99.90;;;;;;5099563;28;20423;-79
2021/07/15 00:23:01;;;;;;;3.47;2.90;;;16.00;99.90;;;;;;5077721;28;20957;-79
2021/07/15 00:25:27;;;;;;;8.83;3.27;;;16.10;99.90;;;;;;5094037;28;20521;-80
2021/07/15 00:27:52;;;;;;;4.23;2.97;;;16.10;99.90;;;;;;5097055;28;20238;-80
2021/07/15 00:30:18;;;;;;;4.00;3.70;;;16.10;99.90;;;;;;5097000;28;20184;-80
2021/07/15 00:32:44;;;;;;;3.87;3.57;;;16.00;99.90;;;;;;5096171;28;20200;-80
2021/07/15 00:35:11;;;;;;;2.80;2.60;;;16.10;99.90;;;;;;5096180;28;20224;-80
2021/07/15 00:37:38;;;;;;;7.20;3.43;;;16.10;99.90;;;;;;5097005;28;20414;-81
2021/07/15 00:40:06;;;;;;;3.10;2.80;;;16.10;99.90;;;;;;5098332;28;20422;-80
2021/07/15 00:42:32;;;;;;;3.33;3.03;;;16.10;99.90;;;;;;5097302;28;20485;-80
2021/07/15 00:44:57;;;;;;;3.23;2.93;;;16.10;99.90;;;;;;5063030;28;20446;-80
2021/07/15 00:47:23;;;;;;;3.40;3.10;;;16.10;99.90;;;;;;5076478;28;20179;-81
2021/07/15 00:49:49;;;;;;;4.33;3.90;;;16.10;99.90;;;;;;5062768;28;20216;-81
2021/07/15 00:52:15;;;;;;;4.17;3.77;;;16.10;99.90;;;;;;5074278;28;20184;-80
2021/07/15 00:54:44;;;;;;;4.10;3.70;;;16.10;99.90;;;;;;5079909;28;20196;-79
2021/07/15 00:57:10;;;;;;;4.40;3.60;;;16.10;99.90;;;;;;5059762;28;20876;-79
2021/07/15 00:59:36;;;;;;;4.43;4.03;;;16.10;99.90;;;;;;5094161;28;20418;-79
2021/07/15 01:02:02;;;;;;;4.33;3.93;;;16.20;99.90;;;;;;5062130;28;20188;-80
2021/07/15 01:04:28;;;;;;;3.83;3.43;;;16.10;99.90;;;;;;5096525;28;20457;-79
2021/07/15 01:06:54;;;;;;;4.63;4.13;;;16.10;99.90;;;;;;5078720;28;21040;-80
2021/07/15 01:09:20;;;;;;;5.47;3.57;;;16.10;99.90;;;;;;5075860;28;20242;-80
2021/07/15 01:12:03;;;;;;;6.10;3.63;;;16.10;99.90;;;;;;5059659;28;20190;-79
2021/07/15 01:14:36;;;;;;;3.53;3.23;;;16.10;99.90;;;;;;5065708;28;20516;-80
2021/07/15 01:17:07;;;;;;;4.13;3.80;;;16.10;99.90;;;;;;5095791;28;20426;-80
2021/07/15 01:19:51;;;;;;;3.77;3.47;;;16.10;99.90;;;;;;5092930;28;20426;-80
2021/07/15 01:22:41;;;;;;;3.97;3.67;;;16.10;99.90;;;;;;5093810;28;20660;-80
2021/07/15 01:25:25;;;;;;;5.40;4.17;;;16.10;99.90;;;;;;5096570;28;20819;-79
2021/07/15 01:28:07;;;;;;;4.50;4.10;;;16.10;99.90;;;;;;5095886;28;20458;-81
2021/07/15 01:30:51;;;;;;;5.10;4.60;;;16.10;99.90;;;;;;5097240;28;20423;-80
2021/07/15 01:33:20;;;;;;;4.57;4.17;;;16.10;99.90;;;;;;5096532;28;20803;-79
2021/07/15 01:35:59;;;;;;;4.90;3.70;;;16.10;99.90;;;;;;5088624;28;20500;-79
2021/07/15 01:38:49;;;;;;;4.53;4.13;;;16.10;99.90;;;;;;5097190;28;21082;-80
2021/07/15 01:41:39;;;;;;;4.70;4.27;;;16.10;99.90;;;;;;5096145;28;20773;-80
2021/07/15 01:44:10;;;;;;;4.40;4.07;;;16.10;99.90;;;;;;5084998;28;20471;-79
2021/07/15 01:46:36;;;;;;;5.00;3.87;;;16.10;99.90;;;;;;5071285;28;20487;-79
2021/07/15 01:49:03;;;;;;;4.57;4.17;;;16.10;99.90;;;;;;5097134;28;20827;-80
2021/07/15 01:51:31;;;;;;;4.00;3.70;;;16.20;99.90;;;;;;5093527;28;20777;-79
2021/07/15 01:53:57;;;;;;;7.90;4.07;;;16.20;99.90;;;;;;5096898;28;20419;-79
2021/07/15 01:56:24;;;;;;;5.07;4.60;;;16.20;99.90;;;;;;5088746;28;20483;-81
2021/07/15 01:58:53;;;;;;;3.80;3.50;;;16.20;99.90;;;;;;5061729;28;20461;-80
2021/07/15 02:01:19;;;;;;;4.20;3.80;;;16.20;99.90;;;;;;5094662;28;20426;-81
2021/07/15 02:03:52;;;;;;;4.63;4.00;;;16.10;99.90;;;;;;5072787;28;20442;-80
2021/07/15 02:06:19;;;;;;;4.10;3.70;;;16.10;99.90;;;;;;5092674;28;20427;-81
2021/07/15 02:08:46;;;;;;;4.70;4.27;;;16.10;99.90;;;;;;5078385;28;21001;-79
2021/07/15 02:11:14;;;;;;;4.20;3.90;;;16.10;99.90;;;;;;5059507;28;20462;-80
2021/07/15 02:13:42;;;;;;;3.90;3.60;;;16.10;99.90;;;;;;5074485;28;20428;-79
2021/07/15 02:16:08;;;;;;;4.10;3.23;;;16.10;99.90;;;;;;5074633;28;20433;-81
2021/07/15 02:18:36;;;;;;;6.00;4.33;;;16.10;99.90;;;;;;5090617;28;20799;-80
2021/07/15 02:21:03;;;;;;;8.20;4.10;;;16.10;99.90;;;;;;5087837;28;20489;-80
2021/07/15 02:23:29;;;;;;;4.33;3.43;;;16.20;99.90;;;;;;5059166;28;20424;-81
2021/07/15 02:25:57;;;;;;;4.20;3.80;;;16.20;99.90;;;;;;5078604;28;20442;-81
2021/07/15 02:28:27;;;;;;;4.20;3.80;;;16.10;99.90;;;;;;5094932;28;20489;-81
2021/07/15 02:30:58;;;;;;;4.13;3.83;;;16.20;99.90;;;;;;5094592;28;20427;-79
2021/07/15 02:33:27;;;;;;;7.83;3.93;;;16.20;99.90;;;;;;5076829;28;20496;-78
2021/07/15 02:35:58;;;;;;;4.17;3.87;;;16.20;99.90;;;;;;5091231;28;20441;-78
2021/07/15 02:38:28;;;;;;;4.97;4.47;;;16.20;99.90;;;;;;5094562;28;20926;-79
2021/07/15 02:40:54;;;;;;;4.53;4.20;;;16.10;99.90;;;;;;5095161;28;20438;-78
2021/07/15 02:43:20;;;;;;;7.43;4.30;;;16.20;99.90;;;;;;5091739;28;20419;-80
2021/07/15 02:45:45;;;;;;;4.10;3.80;;;16.20;99.90;;;;;;5084916;28;20200;-79
2021/07/15 02:48:14;;;;;;;4.80;4.40;;;16.20;99.90;;;;;;5053275;28;20200;-80
2021/07/15 02:50:39;;;;;;;5.20;4.10;;;16.10;99.90;;;;;;5069049;28;20579;-80
2021/07/15 02:53:05;;;;;;;4.40;4.00;;;16.10;99.90;;;;;;5090877;28;20446;-80
2021/07/15 02:55:31;;;;;;;4.13;3.73;;;16.10;99.90;;;;;;5093812;28;20220;-79
2021/07/15 02:58:12;;;;;;;5.00;4.50;;;16.20;99.90;;;;;;5060511;28;20660;-80
2021/07/15 03:00:45;;;;;;;4.80;4.40;;;16.10;99.90;;;;;;5093718;28;20192;-78
2021/07/15 03:03:38;;;;;;;4.70;4.30;;;16.10;99.90;;;;;;5083618;28;20426;-80
2021/07/15 03:06:14;;;;;;;5.10;4.30;;;16.10;99.90;;;;;;5091623;28;21080;-80
2021/07/15 03:08:56;;;;;;;4.63;4.17;;;16.10;99.90;;;;;;5093904;28;20470;-80
2021/07/15 03:11:29;;;;;;;5.50;4.50;;;16.20;99.90;;;;;;5046026;28;20491;-80
2021/07/15 03:13:57;;;;;;;5.00;4.50;;;16.20;99.90;;;;;;5094124;28;20430;-80
2021/07/15 03:16:24;;;;;;;4.67;4.27;;;16.10;99.90;;;;;;5094786;28;20411;-78
2021/07/15 03:18:52;;;;;;;5.70;4.70;;;16.20;99.90;;;;;;5094199;28;20448;-80
2021/07/15 03:21:21;;;;;;;6.00;5.40;;;16.20;99.90;;;;;;5051794;28;20919;-80
2021/07/15 03:23:47;;;;;;;5.20;4.70;;;16.20;99.90;;;;;;5095200;28;20521;-80
2021/07/15 03:26:15;;;;;;;4.67;4.27;;;16.20;99.90;;;;;;5060174;28;21166;-80
2021/07/15 03:28:43;;;;;;;4.90;4.30;;;16.20;99.90;;;;;;5077847;28;20552;-78
2021/07/15 03:31:11;;;;;;;5.37;4.90;;;16.20;99.90;;;;;;5084753;28;20415;-79
2021/07/15 03:33:38;;;;;;;5.10;4.70;;;16.20;99.90;;;;;;5088043;28;20666;-80
2021/07/15 03:36:06;;;;;;;8.20;4.60;;;16.20;99.90;;;;;;5064032;28;20431;-80
2021/07/15 03:38:34;;;;;;;4.30;4.00;;;16.20;99.90;;;;;;5045263;28;20525;-79
2021/07/15 03:41:05;;;;;;;4.77;4.37;;;16.20;99.90;;;;;;5069379;28;20426;-78
2021/07/15 03:43:32;;;;;;;3.90;3.60;;;16.20;99.90;;;;;;5094061;28;20427;-79
2021/07/15 03:46:00;;;;;;;6.37;4.47;;;16.30;99.90;;;;;;5094030;28;20438;-80
2021/07/15 03:48:27;;;;;;;4.67;4.27;;;16.30;99.90;;;;;;5060134;28;20458;-79
2021/07/15 03:51:02;;;;;;;4.60;4.20;;;16.30;99.90;;;;;;5066363;28;20419;-81
2021/07/15 03:53:29;;;;;;;5.30;4.60;;;16.30;99.90;;;;;;5089949;28;20410;-81
2021/07/15 03:55:57;;;;;;;4.53;4.13;;;16.30;99.90;;;;;;5077264;28;20454;-80
2021/07/15 03:58:23;;;;;;;4.57;4.17;;;16.30;99.90;;;;;;5077131;28;20422;-80
2021/07/15 04:00:51;;;;;;;4.30;4.00;;;16.30;99.90;;;;;;5060711;28;20423;-79
2021/07/15 04:03:20;;;;;;;3.90;3.60;;;16.30;99.90;;;;;;5071461;28;20873;-79
2021/07/15 04:05:46;;;;;;;3.47;3.27;;;16.40;99.90;;;;;;5099053;28;20465;-80
2021/07/15 04:08:12;;;;;;;4.27;3.87;;;16.40;99.90;;;;;;5098841;28;20454;-79
2021/07/15 04:10:40;;;;;;;5.20;4.57;;;16.30;99.90;;;;;;5095704;28;20410;-81
2021/07/15 04:13:06;;;;;;;4.57;4.20;;;16.40;99.90;;;;;;5076702;28;20422;-80
2021/07/15 04:16:04;;;;;;;6.37;4.40;;;16.30;99.90;;;;;;5080250;28;20454;-78
2021/07/15 04:18:34;;;;;;;4.10;3.67;;;16.30;99.90;;;;;;5097503;28;20487;-79
2021/07/15 04:21:00;;;;;;;5.23;4.80;;;16.30;99.90;;;;;;5093731;28;20840;-79
2021/07/15 04:23:29;;;;;;;4.83;4.43;;;16.30;99.90;;;;;;5078671;28;20435;-80
2021/07/15 04:25:55;;;;;;;5.33;4.50;;;16.30;99.90;;;;;;5097045;28;20587;-80
2021/07/15 04:28:22;;;;;;;5.10;4.60;;;16.30;99.90;;;;;;5098262;28;20489;-79
2021/07/15 04:30:49;;;;;;;7.30;4.90;;;16.30;99.90;;;;;;5043824;28;20834;-80
2021/07/15 04:33:15;;;;;;;5.40;4.00;;;16.30;99.90;;;;;;5096184;28;20512;-80
2021/07/15 04:35:41;;;;;;;5.23;4.83;;;16.30;99.90;;;;;;5097989;28;20453;-81
2021/07/15 04:38:08;;;;;;;5.10;4.60;;;16.30;99.90;;;;;;5074869;28;20427;-78
2021/07/15 04:40:35;;;;;;;4.97;4.40;;;16.40;99.90;;;;;;5080355;28;20196;-78
2021/07/15 04:43:07;;;;;;;5.50;4.23;;;16.40;99.90;;;;;;5067092;28;21049;-81
2021/07/15 04:45:36;;;;;;;5.20;4.80;;;16.50;99.90;;;;;;5096063;28;20469;-80
2021/07/15 04:48:02;;;;;;;6.17;5.30;;;16.50;99.90;;;;;;5080761;28;20451;-80
2021/07/15 04:50:31;;;;;;;6.10;4.00;;;16.60;99.90;;;;;;5062221;28;20479;-81
2021/07/15 04:53:00;;;;;;;7.63;4.30;;;16.60;99.90;;;;;;5069777;28;20422;-80
2021/07/15 04:55:26;;;;;;;4.40;4.10;;;16.70;99.90;;;;;;5095166;28;20450;-81
2021/07/15 04:57:53;;;;;;;3.97;3.67;;;16.80;99.90;;;;;;5071086;28;20430;-79
2021/07/15 05:00:21;;;;;;;4.03;3.70;;;16.80;99.90;;;;;;5095345;28;20402;-82
2021/07/15 05:02:53;;;;;;;5.13;3.93;;;16.80;99.90;;;;;;5091675;28;20946;-80
2021/07/15 05:05:19;;;;;;;3.90;3.60;;;16.90;99.90;;;;;;5091440;28;20442;-81
2021/07/15 05:07:44;;;;;;;4.20;3.90;;;16.90;99.90;;;;;;5060748;28;20422;-82
2021/07/15 05:10:11;;;;;;;7.83;4.00;;;17.00;99.90;;;;;;5079557;28;20199;-80
2021/07/15 05:12:37;;;;;;;4.83;3.97;;;17.10;99.90;;;;;;5095972;28;20279;-82
2021/07/15 05:15:06;;;;;;;4.37;3.97;;;17.10;99.90;;;;;;5097462;28;20439;-82
2021/07/15 05:17:31;;;;;;;4.07;3.67;;;17.10;99.90;;;;;;5095657;28;20433;-82
2021/07/15 05:19:58;;;;;;;3.77;3.47;;;17.20;99.90;;;;;;5078810;28;20435;-80
2021/07/15 05:22:24;;;;;;;3.30;3.00;;;17.20;99.90;;;;;;5090409;28;20177;-82
2021/07/15 05:24:49;;;;;;;2.70;2.50;;;17.30;99.90;;;;;;5095584;28;20911;-81
2021/07/15 05:27:15;;;;;;;2.70;2.50;;;17.30;99.90;;;;;;5075389;28;20224;-82
2021/07/15 05:29:41;;;;;;;5.03;3.50;;;17.40;99.90;;;;;;5079187;28;20645;-81
2021/07/15 05:32:07;;;;;;;3.00;2.80;;;17.50;99.90;;;;;;5057098;28;20188;-81
2021/07/15 05:34:33;;;;;;;3.03;2.83;;;17.50;99.90;;;;;;5086322;28;20208;-82
2021/07/15 05:37:01;;;;;;;2.97;2.77;;;17.50;99.90;;;;;;5094474;28;20454;-82
2021/07/15 05:39:27;;;;;;;3.20;2.73;;;17.50;99.90;;;;;;5070912;28;20427;-81
2021/07/15 05:41:53;;;;;;;2.00;1.90;;;17.60;99.90;;;;;;5095030;28;20418;-81
2021/07/15 05:44:19;;;;;;;3.03;2.63;;;17.70;99.90;;;;;;5097234;28;21040;-80
2021/07/15 05:46:44;;;;;;;5.27;2.33;;;17.80;99.90;;;;;;5078092;28;20181;-81
2021/07/15 05:49:10;;;;;;;1.50;1.40;;;17.90;99.90;;;;;;5059141;28;20225;-80
2021/07/15 05:51:36;;;;;;;1.67;1.57;;;17.90;99.90;;;;;;5090600;28;20173;-80
2021/07/15 05:54:02;;;;;;;2.20;1.67;;;17.90;99.90;;;;;;5086045;28;20211;-80
2021/07/15 05:56:27;;;;;;;1.50;1.40;;;17.80;99.90;;;;;;5094816;28;21034;-81
2021/07/15 05:58:53;;;;;;;1.70;1.60;;;17.80;99.90;;;;;;5091493;28;20181;-80
2021/07/15 06:01:19;;;;;;;2.13;1.53;;;17.80;99.90;;;;;;5096350;28;20251;-79
2021/07/15 06:03:46;;;;;;;1.90;1.70;;;17.70;99.90;;;;;;5095335;28;20181;-81
2021/07/15 06:06:12;;;;;;;1.73;1.63;;;17.70;99.90;;;;;;5077625;28;21331;-79
2021/07/15 06:08:38;;;;;;;1.70;1.60;;;17.70;99.90;;;;;;5052595;28;20454;-80
2021/07/15 06:11:04;;;;;;;1.80;1.70;;;17.70;99.90;;;;;;5084583;28;20584;-81
2021/07/15 06:13:29;;;;;;;2.50;2.30;;;17.60;99.90;;;;;;5042299;28;20215;-81
2021/07/15 06:15:55;;;;;;;1.80;1.70;;;17.60;99.90;;;;;;5079263;28;20201;-79
2021/07/15 06:18:21;;;;;;;1.70;1.60;;;17.60;99.90;;;;;;5067072;28;20181;-81
2021/07/15 06:20:46;;;;;;;2.30;2.00;;;17.70;99.90;;;;;;5093452;28;20447;-81
2021/07/15 06:23:12;;;;;;;2.23;2.10;;;17.70;99.90;;;;;;5061481;28;20181;-81
2021/07/15 06:25:38;;;;;;;4.40;2.10;;;17.60;99.90;;;;;;5075340;28;20243;-81
2021/07/15 06:28:04;;;;;;;2.40;1.80;;;17.60;99.90;;;;;;5070398;28;20208;-77
2021/07/15 06:30:30;;;;;;;1.93;1.83;;;17.60;99.90;;;;;;5096737;28;20183;-81
2021/07/15 06:32:57;;;;;;;2.20;2.00;;;17.60;99.90;;;;;;5095260;28;20423;-80
2021/07/15 06:35:24;;;;;;;2.93;2.17;;;17.60;99.90;;;;;;5074550;28;20218;-79
2021/07/15 06:37:54;;;;;;;1.93;1.83;;;17.60;99.90;;;;;;5050556;28;20467;-79
2021/07/15 06:40:21;;;;;;;2.17;1.93;;;17.60;99.90;;;;;;5043890;28;20481;-80
2021/07/15 06:42:49;;;;;;;2.80;2.60;;;17.60;99.90;;;;;;5079529;28;20450;-79
2021/07/15 06:45:15;;;;;;;3.97;2.30;;;17.60;99.90;;;;;;5083125;28;20440;-79
2021/07/15 06:47:42;;;;;;;1.70;1.60;;;17.70;99.90;;;;;;5081901;28;20411;-80
2021/07/15 06:50:10;;;;;;;2.20;1.97;;;17.60;99.90;;;;;;5095721;28;20428;-80
2021/07/15 06:52:37;;;;;;;2.30;2.20;;;17.60;99.90;;;;;;5089244;28;20434;-81
2021/07/15 06:55:04;;;;;;;2.60;2.40;;;17.60;99.90;;;;;;5086088;28;20525;-80
2021/07/15 06:57:30;;;;;;;3.10;2.90;;;17.60;99.90;;;;;;5096704;28;20501;-80
2021/07/15 06:59:56;;;;;;;3.20;2.47;;;17.60;99.90;;;;;;5095276;28;20732;-81
2021/07/15 07:02:22;;;;;;;2.70;2.50;;;17.70;99.90;;;;;;5094934;28;20187;-81
2021/07/15 07:04:48;;;;;;;2.57;2.30;;;17.70;99.90;;;;;;5076076;28;20216;-81
2021/07/15 07:07:14;;;;;;;3.97;3.67;;;17.70;99.90;;;;;;5090457;28;20432;-80
2021/07/15 07:09:39;;;;;;;2.70;2.50;;;17.70;99.90;;;;;;5062493;28;20874;-80
2021/07/15 07:12:05;;;;;;;2.90;2.70;;;17.70;99.90;;;;;;5055235;28;20192;-79
2021/07/15 07:14:31;;;;;;;2.60;2.40;;;17.70;99.90;;;;;;5070418;28;20758;-79
2021/07/15 07:16:57;;;;;;;4.10;3.30;;;17.70;99.90;;;;;;5088261;28;20422;-78
2021/07/15 07:19:22;;;;;;;2.77;2.10;;;17.70;99.90;;;;;;5082745;28;20414;-78
2021/07/15 07:21:48;;;;;;;4.00;2.10;;;17.70;99.90;;;;;;5052852;28;20700;-78
2021/07/15 07:24:14;;;;;;;3.17;2.50;;;17.80;99.90;;;;;;5090046;28;20216;-78
2021/07/15 07:26:40;;;;;;;2.70;2.50;;;17.80;99.90;;;;;;5095790;28;20471;-79
2021/07/15 07:29:06;;;;;;;2.90;2.70;;;17.80;99.90;;;;;;5074879;28;20247;-79
2021/07/15 07:31:32;;;;;;;2.90;2.70;;;17.90;99.90;;;;;;5074840;28;20536;-80
2021/07/15 07:33:58;;;;;;;3.70;2.80;;;17.90;99.90;;;;;;5057698;28;20450;-78
2021/07/15 07:36:24;;;;;;;2.30;2.17;;;17.90;99.90;;;;;;5083170;28;20796;-79
2021/07/15 07:38:50;;;;;;;2.47;2.27;;;18.00;99.90;;;;;;5095022;28;20184;-81
2021/07/15 07:41:16;;;;;;;3.60;2.50;;;18.00;99.90;;;;;;5074889;28;20422;-81
2021/07/15 07:43:41;;;;;;;4.97;2.60;;;18.00;99.90;;;;;;5098686;28;20218;-78
2021/07/15 07:46:07;;;;;;;5.83;2.50;;;18.00;99.90;;;;;;5099946;28;20264;-81
2021/07/15 07:48:33;;;;;;;2.50;2.30;;;18.10;99.90;;;;;;5081921;28;20207;-80
2021/07/15 07:50:58;;;;;;;2.40;2.20;;;18.10;99.90;;;;;;5062052;28;20854;-80
2021/07/15 07:53:25;;;;;;;2.07;1.93;;;18.20;99.90;;;;;;5092071;28;20919;-80
2021/07/15 07:55:52;;;;;;;2.27;2.07;;;18.20;99.90;;;;;;5096966;28;20569;-79
2021/07/15 07:58:17;;;;;;;2.90;2.40;;;18.30;99.90;;;;;;5081373;28;20426;-80
2021/07/15 08:00:43;;;;;;;3.40;2.50;;;18.40;99.90;;;;;;5045083;28;20933;-79
2021/07/15 08:03:09;;;;;;;4.30;2.63;;;18.40;99.90;;;;;;5081274;28;20189;-80
2021/07/15 08:05:38;;;;;;;2.87;2.67;;;18.50;99.90;;;;;;5097447;28;20208;-79
2021/07/15 08:08:04;;;;;;;2.70;2.50;;;18.60;99.90;;;;;;5048897;28;20253;-80
2021/07/15 08:10:30;;;;;;;2.57;2.00;;;18.70;99.90;;;;;;5077286;28;20406;-80
2021/07/15 08:12:56;;;;;;;2.33;2.13;;;18.80;99.90;;;;;;5097870;28;20425;-80
2021/07/15 08:15:22;;;;;;;2.33;2.13;;;18.90;99.90;;;;;;5098545;28;20411;-79
2021/07/15 08:17:48;;;;;;;2.80;2.50;;;18.90;99.90;;;;;;5097525;28;20407;-80
2021/07/15 08:20:13;;;;;;;2.60;2.40;;;19.00;99.90;;;;;;5077877;28;20196;-80
2021/07/15 08:22:41;;;;;;;2.30;2.10;;;19.00;99.90;;;;;;5079923;28;20653;-81
2021/07/15 08:25:07;;;;;;;2.37;2.17;;;19.10;99.90;;;;;;5099070;28;20540;-80
2021/07/15 08:27:33;;;;;;;2.83;1.60;;;19.10;99.90;;;;;;5097634;28;20419;-80
2021/07/15 08:29:59;;;;;;;2.30;2.10;;;19.10;99.90;;;;;;5080132;28;20458;-81
2021/07/15 08:32:25;;;;;;;2.37;2.17;;;19.20;99.90;;;;;;5097513;28;20490;-79
2021/07/15 08:34:51;;;;;;;3.30;2.07;;;19.20;99.90;;;;;;5099521;28;20242;-78
2021/07/15 08:37:17;;;;;;;2.53;1.90;;;19.30;99.90;;;;;;5080532;28;20181;-80
2021/07/15 08:39:42;;;;;;;2.80;1.70;;;19.30;99.90;;;;;;5095272;28;20325;-81
2021/07/15 08:42:09;;;;;;;2.03;1.83;;;19.30;99.90;;;;;;5097404;28;20418;-80
2021/07/15 08:44:39;;;;;;;2.43;1.80;;;19.40;99.90;;;;;;5087315;28;20188;-80
2021/07/15 08:47:04;;;;;;;1.57;1.47;;;19.50;99.90;;;;;;5080566;28;20448;-79
2021/07/15 08:49:30;;;;;;;1.73;1.63;;;19.60;99.90;;;;;;5097326;28;20439;-80
2021/07/15 08:51:56;;;;;;;2.10;2.00;;;19.80;99.90;;;;;;5075365;28;20177;-80
2021/07/15 08:54:31;;;;;;;1.57;1.47;;;19.90;99.90;;;;;;5096331;28;20203;-78
2021/07/15 08:56:57;;;;;;;1.87;1.73;;;20.00;99.90;;;;;;5081177;28;20445;-79
2021/07/15 08:59:25;;;;;;;1.77;1.67;;;20.10;99.90;;;;;;5096157;28;20410;-79
2021/07/15 09:01:52;;;;;;;1.90;1.70;;;20.20;99.90;;;;;;5097175;28;20237;-80
2021/07/15 09:04:20;;;;;;;2.10;1.57;;;20.30;99.90;;;;;;5084454;28;20445;-80
2021/07/15 09:06:46;;;;;;;1.10;1.00;;;20.30;99.90;;;;;;5096611;28;20429;-80
2021/07/15 09:09:12;;;;;;;7.97;1.30;;;20.30;99.90;;;;;;5087661;28;20454;-80
2021/07/15 09:11:39;;;;;;;1.93;1.20;;;20.50;99.90;;;;;;5096683;28;20195;-80
2021/07/15 09:14:13;;;;;;;1.20;1.10;;;20.60;99.90;;;;;;5096284;28;20445;-80
2021/07/15 09:16:52;;;;;;;2.10;1.83;;;20.80;99.90;;;;;;5078928;28;20417;-79
2021/07/15 09:19:20;;;;;;;1.50;1.40;;;21.00;99.90;;;;;;5079481;28;20422;-78
2021/07/15 09:21:46;;;;;;;1.97;1.77;;;21.20;99.90;;;;;;5096113;28;20484;-79
2021/07/15 09:24:42;;;;;;;2.40;2.20;;;21.30;99.90;;;;;;5096932;28;20442;-80
2021/07/15 09:27:23;;;;;;;2.10;1.93;;;21.40;99.90;;;;;;5077877;28;20750;-79
2021/07/15 09:30:09;;;;;;;2.00;1.87;;;21.60;99.90;;;;;;5096281;28;20861;-80
2021/07/15 09:32:49;;;;;;;2.63;2.40;;;21.70;99.90;;;;;;5086411;28;20403;-81
2021/07/15 09:35:29;;;;;;;2.50;2.30;;;21.80;99.90;;;;;;5062702;28;20447;-81
2021/07/15 09:37:56;;;;;;;2.23;2.03;;;21.90;99.90;;;;;;5097027;28;20949;-80
2021/07/15 09:40:47;;;;;;;3.00;2.47;;;22.00;99.90;;;;;;5092767;28;21084;-79
2021/07/15 09:43:25;;;;;;;3.07;2.03;;;22.00;99.90;;;;;;5096913;28;20410;-80
2021/07/15 09:45:56;;;;;;;2.77;2.57;;;22.10;99.90;;;;;;5096577;28;20438;-78
2021/07/15 09:48:27;;;;;;;2.80;2.60;;;22.00;99.90;;;;;;5096915;28;20545;-79
2021/07/15 09:50:55;;;;;;;2.43;2.23;;;22.00;99.90;;;;;;5097704;28;20429;-80
2021/07/15 09:53:22;;;;;;;2.77;2.57;;;21.90;99.90;;;;;;5093966;28;20510;-80
2021/07/15 09:55:58;;;;;;;2.60;2.40;;;21.70;99.90;;;;;;5070476;28;20451;-80
2021/07/15 09:58:24;;;;;;;2.60;2.40;;;21.70;99.90;;;;;;5097864;28;20418;-80
2021/07/15 10:00:50;;;;;;;3.03;2.83;;;21.60;99.90;;;;;;5097822;28;20494;-78
2021/07/15 10:03:17;;;;;;;2.93;2.73;;;21.50;99.90;;;;;;5097141;28;20480;-80
2021/07/15 10:05:53;;;;;;;3.50;2.50;;;21.40;99.90;;;;;;5065339;28;20474;-80
2021/07/15 10:08:28;;;;;;;3.87;3.57;;;21.40;99.90;;;;;;5094290;28;21091;-80
2021/07/15 10:11:14;;;;;;;3.57;3.33;;;21.30;99.90;;;;;;5062790;28;20505;-78
2021/07/15 10:13:41;;;;;;;3.30;3.10;;;21.30;99.90;;;;;;5096922;28;20415;-80
2021/07/15 10:16:08;;;;;;;3.70;3.20;;;21.20;99.90;;;;;;5095787;28;20498;-80
2021/07/15 10:18:49;;;;;;;3.87;3.57;;;21.20;99.90;;;;;;5095757;28;20513;-78
2021/07/15 10:21:22;;;;;;;3.77;3.40;;;21.10;99.90;;;;;;5095788;28;20413;-79
2021/07/15 10:23:48;;;;;;;3.90;3.60;;;21.00;99.90;;;;;;5092254;28;20415;-78
2021/07/15 10:26:14;;;;;;;4.27;3.70;;;20.90;99.90;;;;;;5063467;28;20438;-78
2021/07/15 10:28:48;;;;;;;4.07;3.67;;;20.80;99.90;;;;;;5093563;28;20454;-79
2021/07/15 10:31:16;;;;;;;5.07;3.67;;;20.70;99.90;;;;;;5095301;28;20414;-79
2021/07/15 10:33:43;;;;;;;4.57;3.73;;;20.70;99.90;;;;;;5074803;28;20800;-80
2021/07/15 10:36:10;;;;;;;3.60;3.30;;;20.70;99.90;;;;;;5088666;28;20763;-80
2021/07/15 10:38:41;;;;;;;3.70;3.40;;;20.70;99.90;;;;;;5093975;28;20457;-80
2021/07/15 10:41:08;;;;;;;4.23;3.90;;;20.70;99.90;;;;;;5075675;28;20431;-79
2021/07/15 10:43:35;;;;;;;3.67;3.37;;;20.70;99.90;;;;;;5096939;28;20899;-80
2021/07/15 10:46:02;;;;;;;3.20;3.00;;;20.80;99.90;;;;;;5095561;28;20462;-80
2021/07/15 10:48:30;;;;;;;3.73;3.43;;;20.90;99.90;;;;;;5083411;28;20927;-79
2021/07/15 10:50:56;;;;;;;4.23;3.90;;;20.90;99.90;;;;;;5096075;28;20715;-78
2021/07/15 10:53:23;;;;;;;3.73;3.13;;;20.90;99.90;;;;;;5078524;28;20426;-79
2021/07/15 10:55:53;;;;;;;4.03;3.73;;;20.90;99.90;;;;;;5078900;28;20577;-80
2021/07/15 10:58:41;;;;;;;4.40;4.00;;;20.90;99.90;;;;;;5095622;28;20449;-79
2021/07/15 11:01:07;;;;;;;4.17;3.87;;;20.90;99.90;;;;;;5095987;28;20410;-80
2021/07/15 11:03:32;;;;;;;4.70;3.87;;;21.00;99.90;;;;;;5078982;28;20406;-80
2021/07/15 11:05:58;;;;;;;4.30;3.90;;;21.00;99.90;;;;;;5081755;28;20219;-79
2021/07/15 11:08:49;;;;;;;4.70;3.97;;;21.00;99.90;;;;;;5093676;28;20223;-80
2021/07/15 11:11:30;;;;;;;5.03;4.60;;;21.10;99.90;;;;;;5093861;28;20474;-81
2021/07/15 11:13:55;;;;;;;3.97;3.60;;;21.00;99.90;;;;;;5093222;28;20425;-81
2021/07/15 11:16:48;;;;;;;4.40;4.00;;;21.00;99.90;;;;;;5079273;28;20423;-80
2021/07/15 11:19:52;;;;;;;4.00;3.70;;;21.00;99.90;;;;;;5081925;28;20194;-80
2021/07/15 11:22:43;;;;;;;3.67;3.47;;;21.00;99.90;;;;;;5084449;28;20471;-81
2021/07/15 11:25:17;;;;;;;4.17;3.37;;;21.00;99.90;;;;;;5091859;28;20463;-79
2021/07/15 11:27:51;;;;;;;3.73;3.43;;;20.90;99.90;;;;;;5077425;28;20419;-81
2021/07/15 11:30:35;;;;;;;3.77;3.43;;;20.90;99.90;;;;;;5096300;28;20426;-81
2021/07/15 11:33:22;;;;;;;4.27;3.97;;;20.90;99.90;;;;;;5098056;28;20414;-80
2021/07/15 11:36:10;;;;;;;3.97;3.67;;;20.90;99.90;;;;;;5069918;28;20461;-79
2021/07/15 11:38:58;;;;;;;4.30;3.90;;;20.90;99.90;;;;;;5097892;28;20459;-83
2021/07/15 11:41:39;;;;;;;3.93;3.63;;;20.90;99.90;;;;;;5093561;28;20442;-83
2021/07/15 11:44:05;;;;;;;4.00;3.60;;;20.90;99.90;;;;;;5090733;28;20758;-82
2021/07/15 11:46:35;;;;;;;4.20;3.90;;;20.90;99.90;;;;;;5083017;28;20418;-82
2021/07/15 11:49:13;;;;;;;4.10;3.80;;;20.90;99.90;;;;;;5099370;28;20215;-82
2021/07/15 11:51:58;;;;;;;4.20;3.90;;;20.90;99.90;;;;;;5099322;28;20437;-82
2021/07/15 11:54:47;;;;;;;5.47;4.57;;;21.00;99.90;;;;;;5098409;28;20450;-82
2021/07/15 11:57:13;;;;;;;4.40;3.97;;;20.90;99.90;;;;;;5091433;28;20426;-81
2021/07/15 11:59:45;;;;;;;7.70;4.20;;;21.00;99.90;;;;;;5098257;28;20506;-79
2021/07/15 12:02:26;;;;;;;4.63;4.23;;;21.00;99.90;;;;;;5081651;28;20207;-81
2021/07/15 12:05:11;;;;;;;4.80;4.40;;;21.00;99.90;;;;;;5081399;28;20480;-80
2021/07/15 12:07:49;;;;;;;4.13;3.73;;;21.00;99.90;;;;;;5077660;28;20983;-81
2021/07/15 12:10:25;;;;;;;4.10;3.77;;;21.00;99.90;;;;;;5097912;28;20490;-81
2021/07/15 12:12:52;;;;;;;4.00;3.70;;;21.00;99.90;;;;;;5088012;28;20422;-81
2021/07/15 12:15:26;;;;;;;5.53;4.43;;;21.00;99.90;;;;;;5098380;28;20438;-81
2021/07/15 12:17:58;;;;;;;4.70;4.30;;;21.10;99.90;;;;;;5100489;28;20567;-79
2021/07/15 12:20:34;;;;;;;4.67;4.20;;;21.10;99.90;;;;;;5047833;28;20819;-81
2021/07/15 12:23:01;;;;;;;7.07;5.63;;;21.10;99.90;;;;;;5091025;28;20441;-81
2021/07/15 12:25:35;;;;;;;5.13;4.73;;;21.10;99.90;;;;;;5077693;28;20472;-80
2021/07/15 12:28:05;;;;;;;5.83;4.93;;;21.20;99.90;;;;;;5097809;28;20483;-79
2021/07/15 12:30:45;;;;;;;5.50;5.00;;;21.20;99.90;;;;;;5061332;28;20451;-80
2021/07/15 12:33:13;;;;;;;5.20;4.70;;;21.20;99.90;;;;;;5081813;28;20555;-81
2021/07/15 12:35:39;;;;;;;7.10;3.90;;;21.10;99.90;;;;;;5099283;28;20492;-79
2021/07/15 12:38:16;;;;;;;5.53;5.03;;;21.20;99.90;;;;;;5080160;28;20431;-80
2021/07/15 12:40:42;;;;;;;4.73;4.23;;;21.20;99.90;;;;;;5092387;28;20192;-81
2021/07/15 12:43:15;;;;;;;5.57;5.07;;;21.20;99.90;;;;;;5061481;28;20414;-80
2021/07/15 12:45:46;;;;;;;5.83;5.30;;;21.30;99.90;;;;;;5098037;28;20434;-80
2021/07/15 12:48:13;;;;;;;4.90;4.50;;;21.30;99.90;;;;;;5097695;28;20465;-81
2021/07/15 12:50:39;;;;;;;5.40;4.90;;;21.50;99.90;;;;;;5080402;28;20410;-79
2021/07/15 12:53:32;;;;;;;5.70;5.20;;;21.60;99.90;;;;;;5096922;28;20422;-81
2021/07/15 12:55:59;;;;;;;6.40;5.77;;;21.80;99.90;;;;;;5075245;28;20311;-82
2021/07/15 12:58:26;;;;;;;6.47;5.80;;;21.90;99.90;;;;;;5098575;28;20466;-81
2021/07/15 13:01:03;;;;;;;6.13;5.53;;;22.10;99.90;;;;;;5063089;28;20423;-82